createdAt,value
2018-08-30T00:01:23.232Z,16.48
2018-08-30T00:03:51.292Z,16.49
2018-08-30T00:06:19.398Z,16.48
2018-08-30T00:08:47.538Z,16.48
2018-08-30T00:11:15.607Z,16.50
2018-08-30T00:13:43.755Z,16.55
2018-08-30T00:16:12.180Z,16.52
2018-08-30T00:18:40.269Z,16.51
2018-08-30T00:21:08.382Z,16.50
2018-08-30T00:23:36.461Z,16.49
2018-08-30T00:26:05.275Z,16.46
2018-08-30T00:28:33.354Z,16.45
2018-08-30T00:31:01.441Z,16.47
2018-08-30T00:33:29.542Z,16.50
2018-08-30T00:35:57.623Z,16.51
2018-08-30T00:38:25.710Z,16.53
2018-08-30T00:40:53.829Z,16.49
2018-08-30T00:43:21.925Z,16.44
2018-08-30T00:45:49.991Z,16.41
2018-08-30T00:48:18.059Z,16.41
2018-08-30T00:50:46.163Z,16.39
2018-08-30T00:53:14.236Z,16.36
2018-08-30T00:55:42.296Z,16.33
2018-08-30T00:58:10.515Z,16.33
2018-08-30T01:00:38.616Z,16.39
2018-08-30T01:03:06.758Z,16.43
2018-08-30T01:05:35.138Z,16.39
2018-08-30T01:08:03.603Z,16.35
2018-08-30T01:10:31.719Z,16.38
2018-08-30T01:12:59.810Z,16.38
2018-08-30T01:15:28.129Z,16.39
2018-08-30T01:17:56.632Z,16.39
2018-08-30T01:20:24.702Z,16.41
2018-08-30T01:22:52.794Z,16.40
2018-08-30T01:25:21.071Z,16.41
2018-08-30T01:27:49.381Z,16.41
2018-08-30T01:30:17.727Z,16.35
2018-08-30T01:32:46.151Z,16.36
2018-08-30T01:35:14.211Z,16.36
2018-08-30T01:37:42.275Z,16.37
2018-08-30T01:40:10.355Z,16.37
2018-08-30T01:42:38.421Z,16.39
2018-08-30T01:45:06.676Z,16.41
2018-08-30T01:47:34.763Z,16.37
2018-08-30T01:50:02.826Z,16.37
2018-08-30T01:52:30.899Z,16.38
2018-08-30T01:54:59.149Z,16.35
2018-08-30T01:57:27.486Z,16.37
2018-08-30T01:59:55.582Z,16.36
2018-08-30T02:02:23.807Z,16.41
2018-08-30T02:04:51.883Z,16.36
2018-08-30T02:07:19.951Z,16.36
2018-08-30T02:09:48.054Z,16.40
2018-08-30T02:12:16.117Z,16.43
2018-08-30T02:14:44.194Z,16.48
2018-08-30T02:17:12.298Z,16.50
2018-08-30T02:19:40.382Z,16.52
2018-08-30T02:22:08.619Z,16.50
2018-08-30T02:24:36.695Z,16.50
2018-08-30T02:27:04.786Z,16.49
2018-08-30T02:29:33.016Z,16.51
2018-08-30T02:32:01.234Z,16.51
2018-08-30T02:34:29.299Z,16.50
2018-08-30T02:36:57.418Z,16.55
2018-08-30T02:39:25.563Z,16.59
2018-08-30T02:41:53.593Z,16.57
2018-08-30T02:44:21.722Z,16.60
2018-08-30T02:46:49.950Z,16.64
2018-08-30T02:49:18.028Z,16.69
2018-08-30T02:51:46.114Z,16.68
2018-08-30T02:54:14.214Z,16.68
2018-08-30T02:56:42.276Z,16.73
2018-08-30T02:59:10.338Z,16.76
2018-08-30T03:01:38.576Z,16.76
2018-08-30T03:04:06.728Z,16.76
2018-08-30T03:06:34.786Z,16.75
2018-08-30T03:09:03.043Z,16.76
2018-08-30T03:11:31.117Z,16.78
2018-08-30T03:13:59.187Z,16.79
2018-08-30T03:16:27.373Z,16.78
2018-08-30T03:18:55.455Z,16.78
2018-08-30T03:21:23.531Z,16.75
2018-08-30T03:23:51.634Z,16.73
2018-08-30T03:26:19.694Z,16.74
2018-08-30T03:28:47.806Z,16.70
2018-08-30T03:31:15.873Z,16.67
2018-08-30T03:33:43.943Z,16.67
2018-08-30T03:36:12.084Z,16.69
2018-08-30T03:38:40.147Z,16.64
2018-08-30T03:41:08.218Z,16.64
2018-08-30T03:43:36.287Z,16.63
2018-08-30T03:46:04.626Z,16.57
2018-08-30T03:48:32.782Z,16.58
2018-08-30T03:51:00.842Z,16.53
2018-08-30T03:53:28.927Z,16.55
2018-08-30T03:55:56.999Z,16.53
2018-08-30T03:58:25.068Z,16.52
2018-08-30T04:00:53.140Z,16.54
2018-08-30T04:03:21.222Z,16.50
2018-08-30T04:05:49.305Z,16.49
2018-08-30T04:08:17.366Z,16.47
2018-08-30T04:10:45.462Z,16.47
2018-08-30T04:13:13.558Z,16.50
2018-08-30T04:15:41.817Z,16.47
2018-08-30T04:18:09.898Z,16.44
2018-08-30T04:20:37.965Z,16.44
2018-08-30T04:23:06.101Z,16.42
2018-08-30T04:25:40.610Z,16.43
2018-08-30T04:28:08.855Z,16.43
2018-08-30T04:30:37.196Z,16.46
2018-08-30T04:33:05.278Z,16.45
2018-08-30T04:35:33.663Z,16.42
2018-08-30T04:38:01.734Z,16.40
2018-08-30T04:40:29.812Z,16.41
2018-08-30T04:42:58.074Z,16.40
2018-08-30T04:45:26.158Z,16.41
2018-08-30T04:47:54.231Z,16.41
2018-08-30T04:50:22.396Z,16.41
2018-08-30T04:52:50.443Z,16.39
2018-08-30T04:55:19.389Z,16.37
2018-08-30T04:57:47.699Z,16.33
2018-08-30T05:00:15.778Z,16.27
2018-08-30T05:02:44.158Z,16.30
2018-08-30T05:05:12.290Z,16.32
2018-08-30T05:07:40.347Z,16.37
2018-08-30T05:10:08.680Z,16.36
2018-08-30T05:12:36.670Z,16.38
2018-08-30T05:15:05.132Z,16.40
2018-08-30T05:17:33.206Z,16.43
2018-08-30T05:20:01.463Z,16.43
2018-08-30T05:22:29.550Z,16.46
2018-08-30T05:24:57.630Z,16.48
2018-08-30T05:27:25.755Z,16.47
2018-08-30T05:29:53.960Z,16.48
2018-08-30T05:32:22.047Z,16.55
2018-08-30T05:34:50.120Z,16.57
2018-08-30T05:37:18.193Z,16.58
2018-08-30T05:39:46.271Z,16.56
2018-08-30T05:42:14.354Z,16.56
2018-08-30T05:44:42.567Z,16.62
2018-08-30T05:47:10.603Z,16.62
2018-08-30T05:49:38.730Z,16.56
2018-08-30T05:52:06.929Z,16.57
2018-08-30T05:54:35.011Z,16.58
2018-08-30T05:57:03.485Z,16.60
2018-08-30T05:59:31.454Z,16.63
2018-08-30T06:01:59.650Z,16.65
2018-08-30T06:04:46.607Z,16.68
2018-08-30T06:07:14.981Z,16.73
2018-08-30T06:09:43.072Z,16.77
2018-08-30T06:12:11.182Z,16.79
2018-08-30T06:14:39.589Z,16.82
2018-08-30T06:17:07.695Z,16.82
2018-08-30T06:19:35.806Z,16.82
2018-08-30T06:22:04.674Z,16.78
2018-08-30T06:24:32.750Z,16.73
2018-08-30T06:27:01.794Z,16.73
2018-08-30T06:29:29.880Z,16.71
2018-08-30T06:31:57.992Z,16.71
2018-08-30T06:34:26.228Z,16.70
2018-08-30T06:36:54.311Z,16.76
2018-08-30T06:39:22.407Z,16.78
2018-08-30T06:41:50.497Z,16.81
2018-08-30T06:44:18.570Z,16.79
2018-08-30T06:46:46.687Z,16.81
2018-08-30T06:49:14.815Z,16.84
2018-08-30T06:51:43.384Z,16.86
2018-08-30T06:54:11.494Z,16.89
2018-08-30T06:56:39.902Z,16.93
2018-08-30T06:59:08.875Z,16.98
2018-08-30T07:01:37.131Z,17.03
2018-08-30T07:04:05.435Z,17.05
2018-08-30T07:06:33.495Z,17.03
2018-08-30T07:09:01.649Z,17.00
2018-08-30T07:11:29.841Z,16.99
2018-08-30T07:13:57.891Z,17.00
2018-08-30T07:16:26.120Z,17.05
2018-08-30T07:18:54.192Z,17.13
2018-08-30T07:21:22.291Z,17.07
2018-08-30T07:23:50.706Z,17.12
2018-08-30T07:26:18.799Z,17.19
2018-08-30T07:28:46.915Z,17.32
2018-08-30T07:31:15.223Z,17.44
2018-08-30T07:33:43.286Z,17.57
2018-08-30T07:36:11.350Z,17.70
2018-08-30T07:38:39.495Z,17.79
2018-08-30T07:41:07.613Z,17.94
2018-08-30T07:43:36.049Z,18.09
2018-08-30T07:46:05.074Z,18.24
2018-08-30T07:48:33.158Z,18.36
2018-08-30T07:51:01.367Z,18.60
2018-08-30T07:53:29.405Z,18.83
2018-08-30T07:55:57.662Z,18.92
2018-08-30T07:58:26.060Z,19.02
2018-08-30T08:00:54.126Z,19.27
2018-08-30T08:03:22.210Z,19.44
2018-08-30T08:05:50.646Z,19.39
2018-08-30T08:08:18.718Z,19.48
2018-08-30T08:10:46.992Z,19.55
2018-08-30T08:13:15.102Z,19.58
2018-08-30T08:15:43.171Z,19.68
2018-08-30T08:18:11.346Z,19.71
2018-08-30T08:20:39.431Z,19.74
2018-08-30T08:23:07.530Z,19.86
2018-08-30T08:25:35.623Z,19.97
2018-08-30T08:28:03.732Z,20.06
2018-08-30T08:30:31.870Z,19.96
2018-08-30T08:33:00.128Z,19.97
2018-08-30T08:35:28.203Z,20.00
2018-08-30T08:37:56.400Z,20.03
2018-08-30T08:40:24.541Z,20.18
2018-08-30T08:42:52.723Z,20.38
2018-08-30T08:45:20.813Z,20.45
2018-08-30T08:47:49.016Z,20.58
2018-08-30T08:50:17.043Z,20.50
2018-08-30T08:52:45.157Z,20.43
2018-08-30T08:55:13.232Z,20.37
2018-08-30T08:57:41.299Z,20.48
2018-08-30T09:00:09.403Z,20.62
2018-08-30T09:02:37.641Z,20.66
2018-08-30T09:05:06.059Z,20.72
2018-08-30T09:07:34.199Z,20.61
2018-08-30T09:10:02.298Z,20.59
2018-08-30T09:12:30.364Z,20.67
2018-08-30T09:14:58.515Z,20.84
2018-08-30T09:17:26.592Z,20.79
2018-08-30T09:19:54.671Z,20.84
2018-08-30T09:22:22.739Z,20.90
2018-08-30T09:24:50.822Z,20.85
2018-08-30T09:27:19.206Z,20.90
2018-08-30T09:29:47.278Z,20.80
2018-08-30T09:32:15.499Z,20.84
2018-08-30T09:34:43.742Z,20.93
2018-08-30T09:37:14.127Z,20.81
2018-08-30T09:39:42.386Z,20.71
2018-08-30T09:42:10.462Z,20.68
2018-08-30T09:44:38.534Z,20.78
2018-08-30T09:47:06.667Z,20.88
2018-08-30T09:49:35.214Z,20.96
2018-08-30T09:52:03.465Z,21.17
2018-08-30T09:54:31.515Z,21.29
2018-08-30T09:56:59.668Z,21.17
2018-08-30T09:59:27.710Z,21.16
2018-08-30T10:02:06.950Z,21.10
2018-08-30T10:04:35.343Z,21.06
2018-08-30T10:07:03.407Z,20.96
2018-08-30T10:09:31.505Z,21.04
2018-08-30T10:11:59.640Z,21.26
2018-08-30T10:14:27.918Z,21.58
2018-08-30T10:16:56.260Z,21.51
2018-08-30T10:19:24.394Z,21.19
2018-08-30T10:21:52.918Z,21.08
2018-08-30T10:24:21.015Z,21.01
2018-08-30T10:26:49.255Z,21.26
2018-08-30T10:29:17.432Z,21.55
2018-08-30T10:31:45.536Z,21.82
2018-08-30T10:34:13.630Z,21.96
2018-08-30T10:36:42.053Z,21.89
2018-08-30T10:39:10.125Z,21.76
2018-08-30T10:41:38.200Z,22.05
2018-08-30T10:44:06.296Z,22.22
2018-08-30T10:46:34.510Z,22.22
2018-08-30T10:49:02.597Z,22.25
2018-08-30T10:51:31.095Z,22.49
2018-08-30T10:53:59.579Z,22.62
2018-08-30T10:56:27.711Z,22.80
2018-08-30T10:58:55.738Z,23.02
2018-08-30T11:01:23.811Z,22.83
2018-08-30T11:03:51.921Z,22.78
2018-08-30T11:06:19.971Z,22.61
2018-08-30T11:08:48.042Z,22.38
2018-08-30T11:11:16.113Z,22.34
2018-08-30T11:13:44.188Z,22.34
2018-08-30T11:16:12.294Z,22.30
2018-08-30T11:18:40.363Z,22.14
2018-08-30T11:21:08.615Z,22.04
2018-08-30T11:23:36.986Z,21.83
2018-08-30T11:26:05.019Z,21.60
2018-08-30T11:28:33.083Z,21.58
2018-08-30T11:31:01.218Z,21.75
2018-08-30T11:33:29.349Z,21.88
2018-08-30T11:35:57.648Z,22.13
2018-08-30T11:38:25.871Z,22.44
2018-08-30T11:40:53.942Z,22.67
2018-08-30T11:43:22.190Z,22.73
2018-08-30T11:45:50.293Z,22.82
2018-08-30T11:48:18.411Z,22.78
2018-08-30T11:50:46.490Z,22.56
2018-08-30T11:53:14.578Z,22.33
2018-08-30T11:55:42.706Z,22.19
2018-08-30T11:58:11.220Z,22.15
2018-08-30T12:00:39.411Z,21.95
2018-08-30T12:03:07.453Z,21.73
2018-08-30T12:05:35.550Z,21.45
2018-08-30T12:08:03.945Z,20.94
2018-08-30T12:10:31.990Z,20.65
2018-08-30T12:13:00.072Z,20.22
2018-08-30T12:15:28.698Z,20.03
2018-08-30T12:17:56.979Z,19.82
2018-08-30T12:20:25.144Z,19.66
2018-08-30T12:22:53.432Z,19.61
2018-08-30T12:25:21.500Z,19.57
2018-08-30T12:27:49.622Z,19.49
2018-08-30T12:30:17.930Z,19.44
2018-08-30T12:32:46.155Z,19.44
2018-08-30T12:35:14.304Z,19.35
2018-08-30T12:37:42.259Z,19.23
2018-08-30T12:40:10.673Z,19.11
2018-08-30T12:42:38.731Z,19.12
2018-08-30T12:45:07.005Z,19.19
2018-08-30T12:47:35.474Z,19.30
2018-08-30T12:50:03.633Z,19.33
2018-08-30T12:52:31.752Z,19.47
2018-08-30T12:55:00.029Z,19.58
2018-08-30T12:57:28.109Z,19.71
2018-08-30T12:59:56.241Z,19.78
2018-08-30T13:02:24.764Z,19.86
2018-08-30T13:04:52.928Z,19.94
2018-08-30T13:07:23.252Z,20.02
2018-08-30T13:09:51.604Z,20.21
2018-08-30T13:12:19.774Z,20.35
2018-08-30T13:14:47.757Z,20.50
2018-08-30T13:17:15.776Z,20.62
2018-08-30T13:19:44.238Z,20.75
2018-08-30T13:22:12.407Z,20.71
2018-08-30T13:24:40.468Z,20.62
2018-08-30T13:27:08.470Z,20.58
2018-08-30T13:29:36.675Z,20.52
2018-08-30T13:32:05.737Z,20.46
2018-08-30T13:34:33.705Z,20.46
2018-08-30T13:37:01.871Z,20.43
2018-08-30T13:39:30.154Z,20.37
2018-08-30T13:41:58.187Z,20.20
2018-08-30T13:44:26.933Z,20.17
2018-08-30T13:46:54.837Z,20.19
2018-08-30T13:49:23.006Z,20.13
2018-08-30T13:51:51.158Z,20.02
2018-08-30T13:54:19.294Z,20.01
2018-08-30T13:56:47.363Z,19.93
2018-08-30T13:59:15.406Z,19.95
2018-08-30T14:01:43.481Z,19.88
2018-08-30T14:04:11.649Z,19.91
2018-08-30T14:06:39.629Z,19.91
2018-08-30T14:09:07.891Z,19.95
2018-08-30T14:11:37.069Z,19.98
2018-08-30T14:14:05.181Z,20.07
2018-08-30T14:16:39.721Z,20.09
2018-08-30T14:19:07.858Z,20.17
2018-08-30T14:21:35.931Z,20.24
2018-08-30T14:24:04.946Z,20.24
2018-08-30T14:26:33.039Z,20.36
2018-08-30T14:29:01.144Z,20.39
2018-08-30T14:31:29.236Z,20.31
2018-08-30T14:33:57.315Z,20.28
2018-08-30T14:36:25.407Z,20.34
2018-08-30T14:38:53.508Z,20.33
2018-08-30T14:41:21.811Z,20.37
2018-08-30T14:43:49.747Z,20.41
2018-08-30T14:46:17.847Z,20.46
2018-08-30T14:48:45.952Z,20.48
2018-08-30T14:51:14.054Z,20.49
2018-08-30T14:53:42.285Z,20.40
2018-08-30T14:56:10.254Z,20.29
2018-08-30T14:58:38.323Z,20.21
2018-08-30T15:01:06.408Z,20.13
2018-08-30T15:03:34.488Z,20.21
2018-08-30T15:06:02.693Z,20.24
2018-08-30T15:08:31.065Z,20.15
2018-08-30T15:10:59.176Z,20.11
2018-08-30T15:13:27.283Z,20.14
2018-08-30T15:15:55.573Z,20.16
2018-08-30T15:18:23.634Z,20.11
2018-08-30T15:20:51.744Z,20.11
2018-08-30T15:23:19.943Z,20.10
2018-08-30T15:25:47.935Z,20.10
2018-08-30T15:28:16.047Z,20.07
2018-08-30T15:30:44.094Z,20.02
2018-08-30T15:33:12.208Z,20.01
2018-08-30T15:35:40.296Z,20.04
2018-08-30T15:38:08.419Z,20.07
2018-08-30T15:40:36.490Z,20.02
2018-08-30T15:43:05.129Z,19.94
2018-08-30T15:45:33.250Z,19.92
2018-08-30T15:48:01.408Z,19.95
2018-08-30T15:50:29.727Z,19.89
2018-08-30T15:52:57.832Z,19.88
2018-08-30T15:55:25.909Z,19.87
2018-08-30T15:57:53.975Z,19.89
2018-08-30T16:00:22.202Z,19.97
2018-08-30T16:02:50.210Z,20.03
2018-08-30T16:05:18.331Z,20.03
2018-08-30T16:07:46.398Z,20.08
2018-08-30T16:10:15.022Z,20.11
2018-08-30T16:12:43.443Z,20.17
2018-08-30T16:15:11.498Z,20.12
2018-08-30T16:17:39.579Z,20.06
2018-08-30T16:20:07.739Z,20.02
2018-08-30T16:22:57.127Z,19.98
2018-08-30T16:25:25.227Z,19.96
2018-08-30T16:27:53.335Z,19.95
2018-08-30T16:33:14.227Z,19.91
2018-08-30T16:35:42.599Z,19.87
2018-08-30T16:41:03.856Z,19.72
2018-08-30T16:43:31.852Z,19.70
2018-08-30T16:46:00.219Z,19.67
2018-08-30T16:48:28.308Z,19.62
2018-08-30T16:50:56.396Z,19.59
2018-08-30T16:53:24.578Z,19.64
2018-08-30T16:55:52.567Z,19.62
2018-08-30T16:58:20.644Z,19.59
2018-08-30T17:00:48.734Z,19.58
2018-08-30T17:03:16.810Z,19.54
2018-08-30T17:05:44.893Z,19.53
2018-08-30T17:08:13.052Z,19.58
2018-08-30T17:10:41.119Z,19.58
2018-08-30T17:13:09.199Z,19.55
2018-08-30T17:15:37.305Z,19.44
2018-08-30T17:18:05.436Z,19.35
2018-08-30T17:20:37.063Z,19.35
2018-08-30T17:23:05.176Z,19.35
2018-08-30T17:25:33.245Z,19.38
2018-08-30T17:28:01.477Z,19.44
2018-08-30T17:30:29.583Z,19.45
2018-08-30T17:32:57.656Z,19.46
2018-08-30T17:35:26.189Z,19.42
2018-08-30T17:37:54.326Z,19.45
2018-08-30T17:40:22.429Z,19.49
2018-08-30T17:42:51.136Z,19.47
2018-08-30T17:45:19.311Z,19.49
2018-08-30T17:47:47.325Z,19.43
2018-08-30T17:50:15.700Z,19.36
2018-08-30T17:52:43.731Z,19.32
2018-08-30T17:55:12.015Z,19.18
2018-08-30T17:57:40.091Z,19.13
2018-08-30T18:00:09.859Z,19.09
2018-08-30T18:02:42.630Z,19.11
2018-08-30T18:05:10.709Z,19.12
2018-08-30T18:07:38.807Z,19.04
2018-08-30T18:10:08.125Z,19.00
2018-08-30T18:12:36.326Z,18.96
2018-08-30T18:15:05.165Z,18.86
2018-08-30T18:17:33.236Z,18.81
2018-08-30T18:20:01.314Z,18.73
2018-08-30T18:22:29.442Z,18.74
2018-08-30T18:24:57.672Z,18.72
2018-08-30T18:27:25.757Z,18.68
2018-08-30T18:29:53.847Z,18.63
2018-08-30T18:32:21.946Z,18.58
2018-08-30T18:34:50.082Z,18.57
2018-08-30T18:37:18.165Z,18.54
2018-08-30T18:39:46.407Z,18.53
2018-08-30T18:42:14.586Z,18.52
2018-08-30T18:44:42.635Z,18.48
2018-08-30T18:47:10.723Z,18.42
2018-08-30T18:49:38.852Z,18.36
2018-08-30T18:52:06.930Z,18.33
2018-08-30T18:54:35.236Z,18.30
2018-08-30T18:57:03.377Z,18.27
2018-08-30T18:59:31.454Z,18.24
2018-08-30T19:01:59.648Z,18.22
2018-08-30T19:04:27.731Z,18.21
2018-08-30T19:06:55.853Z,18.18
2018-08-30T19:09:24.102Z,18.13
2018-08-30T19:11:52.216Z,18.07
2018-08-30T19:14:20.306Z,18.08
2018-08-30T19:17:00.179Z,18.06
2018-08-30T19:19:28.439Z,18.01
2018-08-30T19:21:56.523Z,17.97
2018-08-30T19:24:30.020Z,17.90
2018-08-30T19:26:58.094Z,17.85
2018-08-30T19:29:26.184Z,17.78
2018-08-30T19:31:54.269Z,17.73
2018-08-30T19:34:22.388Z,17.67
2018-08-30T19:36:50.671Z,17.61
2018-08-30T19:39:18.768Z,17.55
2018-08-30T19:41:46.850Z,17.50
2018-08-30T19:44:14.966Z,17.43
2018-08-30T19:46:43.038Z,17.37
2018-08-30T19:49:11.120Z,17.30
2018-08-30T19:51:39.205Z,17.25
2018-08-30T19:54:07.300Z,17.19
2018-08-30T19:56:35.413Z,17.11
2018-08-30T19:59:05.526Z,17.05
2018-08-30T20:01:33.634Z,16.98
2018-08-30T20:04:01.711Z,16.94
2018-08-30T20:06:29.806Z,16.89
2018-08-30T20:08:57.936Z,16.81
2018-08-30T20:11:26.030Z,16.76
2018-08-30T20:13:54.129Z,16.71
2018-08-30T20:16:23.106Z,16.66
2018-08-30T20:18:51.171Z,16.60
2018-08-30T20:21:19.251Z,16.55
2018-08-30T20:23:47.332Z,16.49
2018-08-30T20:26:15.406Z,16.43
2018-08-30T20:28:43.480Z,16.39
2018-08-30T20:31:11.735Z,16.36
2018-08-30T20:33:39.846Z,16.30
2018-08-30T20:36:07.914Z,16.23
2018-08-30T20:38:36.021Z,16.17
2018-08-30T20:41:05.021Z,16.13
2018-08-30T20:43:33.102Z,16.08
2018-08-30T20:46:01.248Z,16.02
2018-08-30T20:48:29.335Z,15.97
2018-08-30T20:50:57.403Z,15.94
2018-08-30T20:53:25.488Z,15.89
2018-08-30T20:55:53.765Z,15.86
2018-08-30T20:58:21.873Z,15.83
2018-08-30T21:00:50.999Z,15.78
2018-08-30T21:03:19.092Z,15.74
2018-08-30T21:05:47.675Z,15.70
2018-08-30T21:08:15.735Z,15.65
2018-08-30T21:10:43.876Z,15.61
2018-08-30T21:13:12.006Z,15.57
2018-08-30T21:15:40.074Z,15.55
2018-08-30T21:18:09.042Z,15.49
2018-08-30T21:20:37.122Z,15.50
2018-08-30T21:23:05.418Z,15.48
2018-08-30T21:25:33.582Z,15.48
2018-08-30T21:28:01.708Z,15.45
2018-08-30T21:30:29.815Z,15.44
2018-08-30T21:32:57.894Z,15.40
2018-08-30T21:35:25.982Z,15.37
2018-08-30T21:37:54.060Z,15.34
2018-08-30T21:40:22.119Z,15.33
2018-08-30T21:42:50.255Z,15.30
2018-08-30T21:45:18.480Z,15.27
2018-08-30T21:47:46.558Z,15.24
2018-08-30T21:50:14.683Z,15.21
2018-08-30T21:52:42.771Z,15.20
2018-08-30T21:55:10.851Z,15.13
2018-08-30T21:57:38.939Z,15.10
2018-08-30T22:00:07.447Z,15.04
2018-08-30T22:02:35.548Z,15.04
2018-08-30T22:05:03.607Z,15.00
2018-08-30T22:07:31.815Z,14.98
2018-08-30T22:09:59.888Z,14.99
2018-08-30T22:12:27.994Z,15.02
2018-08-30T22:14:56.196Z,14.99
2018-08-30T22:17:24.316Z,14.98
2018-08-30T22:19:52.372Z,15.00
2018-08-30T22:22:20.618Z,15.03
2018-08-30T22:24:48.678Z,15.04
2018-08-30T22:27:16.742Z,15.06
2018-08-30T22:29:45.020Z,15.05
2018-08-30T22:32:13.074Z,15.06
2018-08-30T22:34:41.156Z,15.04
2018-08-30T22:37:09.411Z,15.00
2018-08-30T22:39:37.565Z,14.96
2018-08-30T22:42:05.779Z,14.94
2018-08-30T22:44:34.035Z,14.91
2018-08-30T22:47:02.176Z,14.88
2018-08-30T22:49:30.311Z,14.84
2018-08-30T22:51:58.529Z,14.80
2018-08-30T22:54:26.624Z,14.75
2018-08-30T22:56:54.703Z,14.71
2018-08-30T22:59:22.784Z,14.66
2018-08-30T23:01:51.467Z,14.61
2018-08-30T23:04:19.678Z,14.57
2018-08-30T23:06:47.863Z,14.53
2018-08-30T23:09:15.898Z,14.48
2018-08-30T23:11:43.972Z,14.43
2018-08-30T23:14:12.039Z,14.39
2018-08-30T23:16:40.171Z,14.35
2018-08-30T23:19:08.426Z,14.30
2018-08-30T23:21:36.479Z,14.28
2018-08-30T23:24:05.051Z,14.24
2018-08-30T23:26:33.548Z,14.19
2018-08-30T23:29:01.635Z,14.13
2018-08-30T23:31:29.711Z,14.10
2018-08-30T23:33:57.976Z,14.07
2018-08-30T23:36:26.044Z,14.01
2018-08-30T23:38:54.108Z,13.94
2018-08-30T23:41:22.363Z,13.91
2018-08-30T23:43:50.415Z,13.85
2018-08-30T23:46:18.479Z,13.79
2018-08-30T23:48:46.588Z,13.74
2018-08-30T23:51:14.701Z,13.70
2018-08-30T23:53:42.786Z,13.66
2018-08-30T23:56:10.868Z,13.63
2018-08-30T23:58:50.219Z,13.59
